createdAt,value
2023-01-15T00:02:19.630Z,99792.66
2023-01-15T00:05:06.595Z,99799.47
2023-01-15T00:07:53.462Z,99789.03
2023-01-15T00:10:40.482Z,99780.31
2023-01-15T00:13:27.515Z,99785.50
2023-01-15T00:16:14.478Z,99775.94
2023-01-15T00:19:01.597Z,99775.06
2023-01-15T00:21:49.168Z,99720.09
2023-01-15T00:24:34.421Z,99774.16
2023-01-15T00:27:20.190Z,99771.56
2023-01-15T00:30:07.280Z,99770.63
2023-01-15T00:32:54.221Z,99771.50
2023-01-15T00:35:43.842Z,99770.59
2023-01-15T00:38:30.913Z,99769.72
2023-01-15T00:41:18.235Z,99764.47
2023-01-15T00:44:05.171Z,99761.84
2023-01-15T00:46:52.075Z,99749.72
2023-01-15T00:49:41.052Z,99745.34
2023-01-15T00:52:28.335Z,99750.53
2023-01-15T00:55:15.252Z,99750.50
2023-01-15T00:58:02.251Z,99743.53
2023-01-15T01:00:49.148Z,99740.06
2023-01-15T01:03:36.227Z,99742.63
2023-01-15T01:06:24.989Z,99733.06
2023-01-15T01:09:11.961Z,99726.16
2023-01-15T01:11:58.930Z,99729.59
2023-01-15T01:14:46.044Z,99730.44
2023-01-15T01:17:33.032Z,99721.78
2023-01-15T01:20:20.038Z,99714.81
2023-01-15T01:23:09.354Z,99719.13
2023-01-15T01:25:56.547Z,99705.22
2023-01-15T01:28:43.584Z,99693.91
2023-01-15T01:31:30.896Z,99655.28
2023-01-15T01:34:19.851Z,99650.97
2023-01-15T01:37:06.866Z,99693.03
2023-01-15T01:39:53.992Z,99686.09
2023-01-15T01:42:41.956Z,99689.53
2023-01-15T01:45:50.125Z,99693.00
2023-01-15T01:48:41.082Z,99684.38
2023-01-15T01:51:28.033Z,99686.03
2023-01-15T01:54:17.842Z,99686.91
2023-01-15T01:57:04.802Z,99686.00
2023-01-15T01:59:52.885Z,99677.34
2023-01-15T02:02:42.081Z,99681.66
2023-01-15T02:05:32.789Z,99681.66
2023-01-15T02:08:20.875Z,99684.25
2023-01-15T02:11:13.331Z,99686.84
2023-01-15T02:14:04.914Z,99681.63
2023-01-15T02:16:59.933Z,99666.91
2023-01-15T02:20:16.414Z,99665.13
2023-01-15T02:23:18.599Z,99660.78
2023-01-15T02:26:39.450Z,99646.91
2023-01-15T02:29:33.416Z,99646.09
2023-01-15T02:32:23.969Z,99596.25
2023-01-15T02:35:15.525Z,99634.75
2023-01-15T02:38:08.433Z,99601.19
2023-01-15T02:40:57.253Z,99581.59
2023-01-15T02:43:47.467Z,99618.28
2023-01-15T02:46:38.529Z,99623.47
2023-01-15T02:49:33.716Z,99621.72
2023-01-15T02:52:42.031Z,99602.75
2023-01-15T02:55:39.843Z,99615.66
2023-01-15T02:58:32.067Z,99606.09
2023-01-15T03:01:26.314Z,99613.03
2023-01-15T03:04:27.726Z,99523.75
2023-01-15T03:07:17.703Z,99595.72
2023-01-15T03:10:05.999Z,99594.84
2023-01-15T03:12:59.142Z,99596.53
2023-01-15T03:15:59.585Z,99581.81
2023-01-15T03:18:50.373Z,99580.94
2023-01-15T03:21:43.080Z,99583.56
2023-01-15T03:24:32.931Z,99573.16
2023-01-15T03:27:21.669Z,99568.78
2023-01-15T03:30:41.521Z,99556.69
2023-01-15T03:33:29.894Z,99549.72
2023-01-15T03:36:19.899Z,99524.56
2023-01-15T03:39:09.323Z,99525.41
2023-01-15T03:42:35.117Z,99523.72
2023-01-15T03:45:23.156Z,99511.56
2023-01-15T03:48:10.004Z,99510.69
2023-01-15T03:51:35.541Z,99495.25
2023-01-15T03:54:30.160Z,99452.25
2023-01-15T03:57:26.063Z,99479.47
2023-01-15T04:00:23.398Z,99462.19
2023-01-15T04:03:16.611Z,99463.91
2023-01-15T04:06:04.382Z,99456.94
2023-01-15T04:08:54.816Z,99435.63
2023-01-15T04:11:43.890Z,99380.78
2023-01-15T04:14:33.880Z,99459.56
2023-01-15T04:17:26.397Z,99395.22
2023-01-15T04:20:13.660Z,99437.91
2023-01-15T04:23:02.691Z,99441.38
2023-01-15T04:25:49.816Z,99416.28
2023-01-15T04:28:36.709Z,99420.53
2023-01-15T04:31:24.226Z,99411.88
2023-01-15T04:34:11.103Z,99408.38
2023-01-15T04:36:58.169Z,99408.38
2023-01-15T04:39:45.183Z,99399.72
2023-01-15T04:42:32.534Z,99398.81
2023-01-15T04:45:19.704Z,99401.47
2023-01-15T04:48:06.735Z,99403.19
2023-01-15T04:50:53.796Z,99386.78
2023-01-15T04:53:40.868Z,99392.78
2023-01-15T04:56:27.948Z,99383.22
2023-01-15T04:59:14.937Z,99381.50
2023-01-15T05:02:05.921Z,99385.00
2023-01-15T05:04:54.513Z,99343.72
2023-01-15T05:07:41.479Z,99359.13
2023-01-15T05:10:29.428Z,99372.81
2023-01-15T05:13:16.335Z,99356.41
2023-01-15T05:16:03.562Z,99362.38
2023-01-15T05:18:52.757Z,99364.97
2023-01-15T05:21:45.392Z,99358.00
2023-01-15T05:24:37.337Z,99347.53
2023-01-15T05:27:24.320Z,99340.59
2023-01-15T05:30:11.171Z,99349.28
2023-01-15T05:32:58.194Z,99325.13
2023-01-15T05:35:45.035Z,99341.41
2023-01-15T05:38:32.098Z,99334.44
2023-01-15T05:41:24.442Z,99323.16
2023-01-15T05:44:11.537Z,99320.53
2023-01-15T05:46:59.823Z,99303.16
2023-01-15T05:49:48.077Z,99297.84
2023-01-15T05:52:35.040Z,99291.81
2023-01-15T05:55:22.039Z,99283.09
2023-01-15T05:58:09.028Z,99283.19
2023-01-15T06:00:56.011Z,99269.16
2023-01-15T06:03:44.207Z,99263.22
2023-01-15T06:06:34.280Z,99256.13
2023-01-15T06:09:21.289Z,99246.59
2023-01-15T06:12:08.513Z,99248.28
2023-01-15T06:14:55.589Z,99243.03
2023-01-15T06:17:42.486Z,99230.06
2023-01-15T06:20:30.149Z,99225.59
2023-01-15T06:23:17.172Z,99215.13
2023-01-15T06:26:04.189Z,99211.66
2023-01-15T06:28:51.317Z,99205.53
2023-01-15T06:31:40.962Z,99203.78
2023-01-15T06:34:28.064Z,99189.09
2023-01-15T06:37:14.929Z,99204.53
2023-01-15T06:40:01.967Z,99203.66
2023-01-15T06:42:47.500Z,99129.41
2023-01-15T06:45:32.946Z,99204.44
2023-01-15T06:48:19.872Z,99186.56
2023-01-15T06:51:06.865Z,99194.81
2023-01-15T06:53:53.755Z,99173.97
2023-01-15T06:56:40.786Z,99173.88
2023-01-15T06:59:27.732Z,99161.88
2023-01-15T07:02:14.857Z,99162.50
2023-01-15T07:05:01.646Z,99107.69
2023-01-15T07:07:49.428Z,99158.06
2023-01-15T07:10:36.671Z,99138.94
2023-01-15T07:13:23.834Z,99131.03
2023-01-15T07:16:10.954Z,99134.47
2023-01-15T07:18:57.958Z,99119.69
2023-01-15T07:21:44.876Z,99114.44
2023-01-15T07:24:32.515Z,99115.25
2023-01-15T07:27:19.620Z,99106.53
2023-01-15T07:30:06.549Z,99067.09
2023-01-15T07:32:53.549Z,99073.69
2023-01-15T07:35:40.446Z,99066.66
2023-01-15T07:38:27.438Z,99072.56
2023-01-15T07:41:15.153Z,99070.84
2023-01-15T07:44:01.063Z,99071.59
2023-01-15T07:46:47.087Z,98948.00
2023-01-15T07:49:32.906Z,99061.97
2023-01-15T07:52:19.865Z,99054.16
2023-01-15T07:55:08.011Z,99046.44
2023-01-15T07:57:55.237Z,99044.50
2023-01-15T08:00:44.123Z,99034.06
2023-01-15T08:03:30.978Z,99017.78
2023-01-15T08:06:17.953Z,99021.81
2023-01-15T08:09:04.802Z,99013.19
2023-01-15T08:11:52.402Z,99013.06
2023-01-15T08:14:37.919Z,98960.75
2023-01-15T08:17:24.873Z,98977.41
2023-01-15T08:20:11.756Z,98968.66
2023-01-15T08:22:58.953Z,98957.31
2023-01-15T08:25:46.137Z,98956.41
2023-01-15T08:28:33.229Z,98919.44
2023-01-15T08:31:20.079Z,98924.19
2023-01-15T08:34:07.251Z,98923.25
2023-01-15T08:36:54.429Z,98914.53
2023-01-15T08:39:41.507Z,98908.44
2023-01-15T08:42:28.360Z,98896.25
2023-01-15T08:45:15.324Z,98881.44
2023-01-15T08:48:02.182Z,98860.53
2023-01-15T08:50:49.273Z,98846.75
2023-01-15T08:53:36.730Z,98844.00
2023-01-15T08:56:24.139Z,98854.38
2023-01-15T08:59:10.985Z,98838.03
2023-01-15T09:01:38.177Z,98831.81
2023-01-15T09:04:06.841Z,98821.25
2023-01-15T09:06:54.171Z,98810.00
2023-01-15T09:09:41.185Z,98802.06
2023-01-15T09:12:28.225Z,98728.72
2023-01-15T09:15:15.247Z,98785.44
2023-01-15T09:18:02.246Z,98782.03
2023-01-15T09:20:49.446Z,98775.81
2023-01-15T09:23:36.632Z,98755.72
2023-01-15T09:26:26.427Z,98748.78
2023-01-15T09:29:13.454Z,98743.50
2023-01-15T09:32:00.361Z,98723.44
2023-01-15T09:34:47.241Z,98714.63
2023-01-15T09:37:34.131Z,98704.13
2023-01-15T09:40:21.255Z,98686.69
2023-01-15T09:43:18.131Z,98671.84
2023-01-15T09:46:19.793Z,98651.31
2023-01-15T09:49:37.299Z,98645.59
2023-01-15T09:52:46.158Z,98635.06
2023-01-15T09:55:47.236Z,98623.66
2023-01-15T09:58:37.904Z,98613.22
2023-01-15T10:01:05.377Z,98600.91
2023-01-15T10:04:14.671Z,98588.63
2023-01-15T10:07:23.581Z,98579.84
2023-01-15T10:10:22.129Z,98571.03
2023-01-15T10:13:14.405Z,98546.56
2023-01-15T10:16:05.003Z,98532.63
2023-01-15T10:18:52.086Z,98515.97
2023-01-15T10:21:56.243Z,98515.00
2023-01-15T10:24:59.409Z,98503.59
2023-01-15T10:27:50.741Z,98470.69
2023-01-15T10:30:42.919Z,98473.75
2023-01-15T10:33:57.259Z,98448.44
2023-01-15T10:36:59.489Z,98443.03
2023-01-15T10:39:58.223Z,98409.97
2023-01-15T10:43:23.360Z,98400.13
2023-01-15T10:46:20.157Z,98384.25
2023-01-15T10:49:26.580Z,98376.28
2023-01-15T10:52:32.153Z,98354.66
2023-01-15T10:56:11.593Z,98345.44
2023-01-15T12:49:06.506Z,97868.28
2023-01-15T12:51:58.578Z,97848.38
2023-01-15T12:54:53.720Z,97846.94
2023-01-15T12:57:56.994Z,97839.66
2023-01-15T13:00:50.683Z,97842.06
2023-01-15T13:04:00.430Z,97834.88
2023-01-15T13:06:47.542Z,97836.34
2023-01-15T13:09:48.620Z,97825.75
2023-01-15T13:12:36.741Z,97805.53
2023-01-15T13:15:24.976Z,97800.94
2023-01-15T13:18:20.996Z,97786.91
2023-01-15T13:21:10.049Z,97764.56
2023-01-15T13:24:37.605Z,97772.63
2023-01-15T13:27:50.452Z,97748.97
2023-01-15T13:30:47.621Z,97673.34
2023-01-15T13:33:54.269Z,97746.13
2023-01-15T13:36:48.952Z,97746.03
2023-01-15T13:39:39.966Z,97743.31
2023-01-15T13:42:34.724Z,97731.91
2023-01-15T13:45:40.384Z,97718.25
2023-01-15T13:48:40.842Z,97715.97
2023-01-15T13:51:49.054Z,97708.00
2023-01-15T13:54:41.702Z,97710.50
2023-01-15T13:57:43.467Z,97701.69
2023-01-15T14:00:54.698Z,97680.84
2023-01-15T14:03:53.489Z,97698.03
2023-01-15T14:06:40.486Z,97688.28
2023-01-15T14:09:34.899Z,97676.03
2023-01-15T14:12:27.441Z,97672.34
2023-01-15T14:15:46.418Z,97667.00
2023-01-15T14:18:57.030Z,97643.72
2023-01-15T14:22:12.674Z,97654.63
2023-01-15T14:25:50.580Z,97664.16
2023-01-15T14:28:43.466Z,97655.38
2023-01-15T14:31:37.541Z,97656.94
2023-01-15T14:34:44.145Z,97643.81
2023-01-15T14:37:56.350Z,97639.41
2023-01-15T14:40:53.076Z,97640.13
2023-01-15T14:43:42.054Z,97639.22
2023-01-15T14:46:53.520Z,97638.25
2023-01-15T14:49:49.006Z,97598.75
2023-01-15T14:52:43.392Z,97626.91
2023-01-15T14:55:32.735Z,97631.03
2023-01-15T14:58:34.130Z,97629.09
2023-01-15T15:01:41.394Z,97624.72
2023-01-15T15:04:55.491Z,97625.44
2023-01-15T15:07:59.813Z,97626.38
2023-01-15T15:10:53.866Z,97628.78
2023-01-15T15:13:51.414Z,97634.03
2023-01-15T15:16:44.370Z,97626.16
2023-01-15T15:19:46.804Z,97625.25
2023-01-15T15:22:39.637Z,97632.03
2023-01-15T15:25:39.429Z,97625.03
2023-01-15T15:28:30.777Z,97621.34
2023-01-15T15:31:22.696Z,97630.78
2023-01-15T15:34:09.656Z,97637.69
2023-01-15T15:36:59.908Z,97630.69
2023-01-15T15:40:10.020Z,97623.53
2023-01-15T15:43:08.417Z,97636.41
2023-01-15T15:45:54.156Z,97634.53
2023-01-15T15:49:01.789Z,97631.06
2023-01-15T15:51:57.928Z,97619.75
2023-01-15T15:54:46.919Z,97633.34
2023-01-15T15:57:37.660Z,97627.28
2023-01-15T16:00:24.927Z,97640.09
2023-01-15T16:03:12.341Z,97639.13
2023-01-15T16:05:59.320Z,97638.06
2023-01-15T16:08:47.770Z,97635.44
2023-01-15T16:11:34.780Z,97638.69
2023-01-15T16:14:26.649Z,97638.56
2023-01-15T16:17:14.678Z,97649.81
2023-01-15T16:20:03.670Z,97637.50
2023-01-15T16:22:50.667Z,97646.22
2023-01-15T16:25:43.801Z,97648.75
2023-01-15T16:28:45.764Z,97647.81
2023-01-15T16:31:35.340Z,97645.19
2023-01-15T16:34:23.832Z,97609.03
2023-01-15T16:37:10.809Z,97644.34
2023-01-15T16:40:05.319Z,97644.13
2023-01-15T16:42:56.932Z,97656.28
2023-01-15T16:45:45.898Z,97646.34
2023-01-15T16:48:46.540Z,97649.25
2023-01-15T16:51:53.657Z,97650.09
2023-01-15T16:54:49.600Z,97653.53
2023-01-15T16:57:49.040Z,97654.41
2023-01-15T17:00:49.095Z,97647.59
2023-01-15T17:03:41.530Z,97656.91
2023-01-15T17:06:32.912Z,97644.53
2023-01-15T17:09:19.816Z,97643.56
2023-01-15T17:12:11.276Z,97649.66
2023-01-15T17:14:38.123Z,97649.44
2023-01-15T17:17:23.117Z,97651.97
2023-01-15T17:19:51.603Z,97644.78
2023-01-15T17:22:33.617Z,97648.25
2023-01-15T17:25:01.352Z,97639.31
2023-01-15T17:27:30.059Z,97647.94
2023-01-15T17:29:57.026Z,97653.91
2023-01-15T17:32:26.834Z,97644.97
2023-01-15T17:34:53.684Z,97648.31
2023-01-15T17:37:20.909Z,97622.53
2023-01-15T17:39:48.101Z,97646.22
2023-01-15T17:42:17.599Z,97642.63
2023-01-15T17:44:46.197Z,97611.41
2023-01-15T17:47:33.388Z,97611.63
2023-01-15T17:50:20.401Z,97563.03
2023-01-15T17:53:08.196Z,97650.78
2023-01-15T17:55:53.780Z,97650.69
2023-01-15T17:58:39.451Z,97660.09
2023-01-15T18:01:37.361Z,97643.03
2023-01-15T18:04:24.680Z,97652.00
2023-01-15T18:07:13.591Z,97647.81
2023-01-15T18:10:00.822Z,97651.03
2023-01-15T18:12:47.942Z,97652.41
2023-01-15T18:15:35.617Z,97653.09
2023-01-15T18:18:22.880Z,97651.66
2023-01-15T18:21:09.802Z,97664.13
2023-01-15T18:23:56.781Z,97571.75
2023-01-15T18:26:43.639Z,97660.22
2023-01-15T18:29:30.830Z,97579.06
2023-01-15T18:32:17.816Z,97660.69
2023-01-15T18:35:04.797Z,97663.09
2023-01-15T18:37:53.136Z,97667.66
2023-01-15T18:40:40.113Z,97667.06
2023-01-15T18:43:25.495Z,97669.59
2023-01-15T18:46:11.335Z,97676.41
2023-01-15T18:48:58.207Z,97653.94
2023-01-15T18:51:45.267Z,97573.97
2023-01-15T18:54:32.308Z,97646.50
2023-01-15T18:57:19.302Z,97673.41
2023-01-15T19:00:09.465Z,97678.44
2023-01-15T19:02:56.366Z,97655.88
2023-01-15T19:05:43.661Z,97617.13
2023-01-15T19:08:30.546Z,97669.50
2023-01-15T19:11:17.573Z,97676.31
2023-01-15T19:14:04.503Z,97676.22
2023-01-15T19:17:06.968Z,97660.31
2023-01-15T19:19:53.941Z,97669.06
2023-01-15T19:22:39.269Z,97671.69
2023-01-15T19:25:26.756Z,97657.47
2023-01-15T19:28:13.789Z,97668.94
2023-01-15T19:31:00.861Z,97614.75
2023-01-15T19:33:47.652Z,97664.25
2023-01-15T19:36:34.577Z,97652.09
2023-01-15T19:39:22.421Z,97655.34
2023-01-15T19:42:07.922Z,97649.34
2023-01-15T19:44:53.655Z,97657.84
2023-01-15T19:47:48.337Z,97658.53
2023-01-15T19:50:41.446Z,97656.59
2023-01-15T19:53:29.884Z,97670.03
2023-01-15T19:55:56.916Z,97676.81
2023-01-15T19:58:23.884Z,97661.06
2023-01-15T20:00:52.939Z,97659.63
2023-01-15T20:03:20.028Z,97663.56
2023-01-15T20:05:47.262Z,97674.94
2023-01-15T20:08:16.916Z,97665.25
2023-01-15T20:10:48.947Z,97681.84
2023-01-15T20:13:40.429Z,97674.94
2023-01-15T20:16:12.815Z,97669.66
2023-01-15T20:18:40.408Z,97676.72
2023-01-15T20:21:08.564Z,97668.25
2023-01-15T20:23:36.795Z,97676.72
2023-01-15T20:26:06.009Z,97672.31
2023-01-15T20:28:33.588Z,97673.38
2023-01-15T20:31:00.723Z,97682.94
2023-01-15T20:33:27.629Z,97682.94
2023-01-15T20:35:54.906Z,97676.81
2023-01-15T20:38:26.321Z,97679.56
2023-01-15T20:40:53.273Z,97686.53
2023-01-15T20:43:46.777Z,97684.84
2023-01-15T20:46:15.758Z,97693.69
2023-01-15T20:49:01.529Z,97677.06
2023-01-15T20:51:28.381Z,97634.06
2023-01-15T20:53:55.429Z,97689.50
2023-01-15T20:56:22.470Z,97679.34
2023-01-15T20:58:51.416Z,97695.56
2023-01-15T21:01:18.521Z,97685.19
2023-01-15T21:03:46.630Z,97694.75
2023-01-15T21:06:13.554Z,97687.09
2023-01-15T21:08:42.140Z,97692.13
2023-01-15T21:11:09.112Z,97688.66
2023-01-15T21:13:36.595Z,97681.72
2023-01-15T21:16:25.371Z,97645.09
2023-01-15T21:19:12.309Z,97683.97
2023-01-15T21:21:59.354Z,97689.75
2023-01-15T21:24:46.293Z,97684.72
2023-01-15T21:27:34.615Z,97689.84
2023-01-15T21:30:21.511Z,97691.63
2023-01-15T21:33:09.031Z,97586.53
2023-01-15T21:35:59.147Z,97695.44
2023-01-15T21:38:46.129Z,97698.78
2023-01-15T21:41:34.521Z,97693.06
2023-01-15T21:44:19.973Z,97695.44
2023-01-15T21:47:07.011Z,97699.97
2023-01-15T21:49:54.527Z,97623.13
2023-01-15T21:52:41.607Z,97701.88
2023-01-15T21:55:29.113Z,97698.44
2023-01-15T21:58:16.032Z,97696.97
2023-01-15T22:01:03.184Z,97700.44
2023-01-15T22:03:50.201Z,97689.91
2023-01-15T22:06:38.052Z,97620.72
2023-01-15T22:09:25.286Z,97675.44
2023-01-15T22:12:12.205Z,97686.56
2023-01-15T22:14:59.205Z,97687.53
2023-01-15T22:17:46.179Z,97683.09
2023-01-15T22:20:33.090Z,97704.09
2023-01-15T22:23:20.067Z,97679.13
2023-01-15T22:26:07.460Z,97696.22
2023-01-15T22:28:54.472Z,97659.50
2023-01-15T22:31:21.461Z,97687.53
2023-01-15T22:33:48.317Z,97676.28
2023-01-15T22:36:16.955Z,97692.28
2023-01-15T22:38:44.202Z,97639.38
2023-01-15T22:41:11.212Z,97692.56
2023-01-15T22:43:38.142Z,97697.81
2023-01-15T22:46:12.381Z,97661.88
2023-01-15T22:48:39.447Z,97708.22
2023-01-15T22:51:06.555Z,97684.28
2023-01-15T22:53:33.571Z,97676.13
2023-01-15T22:56:00.776Z,97669.31
2023-01-15T22:58:27.709Z,97699.34
2023-01-15T23:01:16.079Z,97710.72
2023-01-15T23:04:03.115Z,97709.88
2023-01-15T23:06:50.642Z,97701.06
2023-01-15T23:09:39.169Z,97711.56
2023-01-15T23:12:26.952Z,97710.59
2023-01-15T23:15:14.100Z,97701.06
2023-01-15T23:18:01.905Z,97707.97
2023-01-15T23:20:48.942Z,97686.44
2023-01-15T23:23:36.285Z,97645.63
2023-01-15T23:26:26.462Z,97693.16
2023-01-15T23:29:13.939Z,97709.75
2023-01-15T23:32:01.007Z,97688.50
2023-01-15T23:34:48.764Z,97693.75
2023-01-15T23:37:35.858Z,97704.28
2023-01-15T23:40:23.227Z,97692.81
2023-01-15T23:43:08.917Z,97668.00
2023-01-15T23:45:55.176Z,97692.72
2023-01-15T23:48:42.244Z,97698.91
2023-01-15T23:51:29.885Z,97700.59
2023-01-15T23:54:17.334Z,97693.53
2023-01-15T23:57:04.663Z,97699.75
2023-01-15T23:59:51.735Z,97696.38
